Time;durP1;ratioP1;P1;durP2;ratioP2;P2;SDS_P1;SDS_P2;PMS_P1;PMS_P2;Temp;Humidity;BMP_temperature;BMP_pressure;BME280_temperature;BME280_humidity;BME280_pressure;Samples;Min_cycle;Max_cycle;Signal;HPM_P1;HPM_P2
2022/04/01 00:01:10;;;;;;;11.67;10.60;;;10.50;40.50;;;;;;10387952;28;20233;-72
2022/04/01 00:06:15;;;;;;;11.90;10.90;;;10.50;40.50;;;;;;10398753;28;20270;-72
2022/04/01 00:11:18;;;;;;;12.00;10.90;;;10.50;41.00;;;;;;10387488;28;20236;-73
2022/04/01 00:16:21;;;;;;;11.70;10.70;;;10.50;40.50;;;;;;10396388;28;20248;-72
2022/04/01 00:21:26;;;;;;;11.83;10.80;;;10.50;40.60;;;;;;10392668;28;20242;-73
2022/04/01 00:26:29;;;;;;;12.30;11.30;;;10.50;41.10;;;;;;10399616;28;20234;-72
2022/04/01 00:31:32;;;;;;;12.00;10.90;;;10.50;40.50;;;;;;10400858;28;20234;-72
2022/04/01 00:36:37;;;;;;;12.40;11.37;;;10.50;40.60;;;;;;10400374;28;20268;-72
2022/04/01 00:41:44;;;;;;;10.83;9.87;;;10.60;41.10;;;;;;10403122;28;20230;-72
2022/04/01 00:46:50;;;;;;;11.17;10.17;;;10.60;40.80;;;;;;10402556;28;20288;-73
2022/04/01 00:51:57;;;;;;;11.73;10.63;;;10.60;41.10;;;;;;10399184;28;20242;-73
2022/04/01 00:57:00;;;;;;;11.90;10.80;;;10.50;41.10;;;;;;10396234;28;20321;-72
2022/04/01 01:02:04;;;;;;;11.37;10.40;;;10.50;40.50;;;;;;10401806;28;20317;-73
2022/04/01 01:07:09;;;;;;;11.27;10.27;;;10.50;40.80;;;;;;10399525;28;20234;-72
2022/04/01 01:12:16;;;;;;;11.17;10.17;;;10.50;41.20;;;;;;10403432;28;20242;-72
2022/04/01 01:17:20;;;;;;;10.73;9.83;;;10.40;40.80;;;;;;10391327;28;20719;-72
2022/04/01 01:22:24;;;;;;;11.63;10.53;;;10.40;41.00;;;;;;10393596;28;20245;-74
2022/04/01 01:27:29;;;;;;;10.50;9.60;;;10.40;41.40;;;;;;10383504;28;20585;-75
2022/04/01 01:32:32;;;;;;;11.13;10.23;;;10.40;41.50;;;;;;10386735;28;20240;-75
2022/04/01 01:37:35;;;;;;;11.17;10.20;;;10.30;41.20;;;;;;10387463;28;20248;-75
2022/04/01 01:42:40;;;;;;;10.87;9.97;;;10.30;41.10;;;;;;10386918;28;20234;-75
2022/04/01 01:47:43;;;;;;;11.27;10.30;;;10.30;41.60;;;;;;10394211;28;20230;-75
2022/04/01 01:58:09;;;;;;;10.73;9.83;;;10.30;41.40;;;;;;10386583;28;20226;-75
2022/04/01 02:03:13;;;;;;;10.90;10.00;;;10.30;41.80;;;;;;10385209;28;20280;-75
2022/04/01 02:08:16;;;;;;;11.47;10.47;;;10.30;41.60;;;;;;10394797;28;20257;-75
2022/04/01 02:13:20;;;;;;;11.53;10.53;;;10.30;41.40;;;;;;10385276;28;20234;-75
2022/04/01 02:18:24;;;;;;;12.17;11.07;;;10.30;41.80;;;;;;10385468;28;20703;-75
2022/04/01 02:23:27;;;;;;;12.20;11.20;;;10.30;41.40;;;;;;10386354;28;20251;-75
2022/04/01 02:28:32;;;;;;;12.70;11.60;;;10.30;41.50;;;;;;10393361;28;20244;-75
2022/04/01 02:33:36;;;;;;;12.90;11.80;;;10.30;41.90;;;;;;10386604;28;20237;-75
2022/04/01 02:38:40;;;;;;;12.67;11.57;;;10.30;41.70;;;;;;10392752;28;20243;-75
2022/04/01 02:43:45;;;;;;;13.03;11.80;;;10.30;42.50;;;;;;10388109;28;20234;-75
2022/04/01 02:48:48;;;;;;;13.07;11.87;;;10.30;41.70;;;;;;10376608;28;20767;-75
2022/04/01 02:53:51;;;;;;;12.53;11.43;;;10.30;41.60;;;;;;10385795;28;20249;-75
2022/04/01 02:58:56;;;;;;;12.63;11.53;;;10.30;41.50;;;;;;10378401;28;20240;-75
2022/04/01 03:03:59;;;;;;;12.17;11.07;;;10.30;41.70;;;;;;10392750;28;20297;-75
2022/04/01 03:09:02;;;;;;;12.07;11.07;;;10.20;41.50;;;;;;10390674;28;20234;-75
2022/04/01 03:14:08;;;;;;;12.03;10.93;;;10.20;41.60;;;;;;10386938;28;20234;-75
2022/04/01 03:19:13;;;;;;;11.40;10.40;;;10.20;42.00;;;;;;10386236;28;20316;-75
2022/04/01 03:24:17;;;;;;;11.67;10.67;;;10.10;41.70;;;;;;10378853;28;20271;-75
2022/04/01 03:29:22;;;;;;;11.50;10.50;;;10.10;41.80;;;;;;10387764;28;20241;-75
2022/04/01 03:34:26;;;;;;;11.43;10.33;;;10.00;42.00;;;;;;10387873;28;20592;-75
2022/04/01 03:39:29;;;;;;;10.57;9.67;;;10.00;41.90;;;;;;10386874;28;20317;-75
2022/04/01 03:44:36;;;;;;;10.27;9.47;;;10.00;41.90;;;;;;10387556;28;20230;-75
2022/04/01 03:49:51;;;;;;;10.17;9.37;;;10.00;42.50;;;;;;10375413;28;20246;-76
2022/04/01 03:54:56;;;;;;;10.53;9.70;;;9.90;43.80;;;;;;10372866;28;20240;-76
2022/04/01 04:00:04;;;;;;;9.77;8.97;;;9.90;43.40;;;;;;10375608;28;20254;-76
2022/04/01 04:05:09;;;;;;;9.10;8.40;;;9.90;44.10;;;;;;10372243;28;20618;-76
2022/04/01 04:10:12;;;;;;;8.33;7.63;;;9.80;43.20;;;;;;10386843;28;20229;-75
2022/04/01 04:15:17;;;;;;;8.00;7.40;;;9.80;43.20;;;;;;10387044;28;20230;-75
2022/04/01 04:20:27;;;;;;;8.03;7.43;;;9.80;43.30;;;;;;10397805;28;20249;-75
2022/04/01 04:25:36;;;;;;;7.83;7.23;;;9.70;43.70;;;;;;10395428;28;20225;-75
2022/04/01 04:30:49;;;;;;;7.20;6.70;;;9.70;43.60;;;;;;10387672;28;20225;-76
2022/04/01 04:35:53;;;;;;;7.13;6.53;;;9.70;44.00;;;;;;10390683;28;20234;-75
2022/04/01 04:40:56;;;;;;;6.27;5.77;;;9.70;42.90;;;;;;10381760;28;20260;-76
2022/04/01 04:46:02;;;;;;;5.87;5.37;;;9.70;43.00;;;;;;10376414;28;20744;-78
2022/04/01 04:51:07;;;;;;;5.50;5.10;;;9.70;43.20;;;;;;10386230;28;20229;-77
2022/04/01 04:56:14;;;;;;;5.70;5.20;;;9.60;42.90;;;;;;10399676;28;20608;-73
2022/04/01 05:01:34;;;;;;;5.73;4.93;;;9.60;43.00;;;;;;10403781;28;20271;-75
2022/04/01 05:06:48;;;;;;;5.00;4.70;;;9.60;43.80;;;;;;10394463;28;20771;-75
2022/04/01 05:11:58;;;;;;;5.27;4.87;;;9.50;43.30;;;;;;10392528;28;20721;-74
2022/04/01 05:17:04;;;;;;;5.50;5.10;;;9.50;43.30;;;;;;10385288;28;20260;-75
2022/04/01 05:22:09;;;;;;;5.23;4.83;;;9.50;43.30;;;;;;10388295;28;20230;-75
2022/04/01 05:27:25;;;;;;;4.77;4.47;;;9.50;43.10;;;;;;10398560;28;20260;-75
2022/04/01 05:32:33;;;;;;;5.53;5.13;;;9.40;43.70;;;;;;10390323;28;20237;-75
2022/04/01 05:37:37;;;;;;;8.77;7.97;;;9.40;43.30;;;;;;10385973;28;20240;-76
2022/04/01 05:42:41;;;;;;;5.80;5.30;;;9.30;42.90;;;;;;10393424;28;20225;-75
2022/04/01 05:47:48;;;;;;;4.73;4.40;;;9.30;43.10;;;;;;10391320;28;20230;-76
2022/04/01 05:52:53;;;;;;;5.10;4.70;;;9.30;43.30;;;;;;10368180;28;20234;-76
2022/04/01 05:57:56;;;;;;;4.63;4.33;;;9.20;43.10;;;;;;10367987;28;20239;-76
2022/04/01 06:03:22;;;;;;;4.90;4.50;;;9.20;43.00;;;;;;10395494;28;20233;-76
2022/04/01 06:08:35;;;;;;;4.43;4.13;;;9.20;43.70;;;;;;10397894;28;20261;-76
2022/04/01 06:13:47;;;;;;;4.80;4.50;;;9.20;43.40;;;;;;10375287;28;20234;-76
2022/04/01 06:19:03;;;;;;;4.73;4.43;;;9.20;43.40;;;;;;10382732;28;20244;-76
2022/04/01 06:24:11;;;;;;;4.40;4.10;;;9.10;43.50;;;;;;10383302;28;20237;-76
2022/04/01 06:29:37;;;;;;;4.37;4.07;;;9.10;43.40;;;;;;10394477;28;20732;-75
2022/04/01 06:35:05;;;;;;;4.30;4.00;;;9.10;44.00;;;;;;10377578;28;20240;-75
2022/04/01 06:40:10;;;;;;;4.30;4.00;;;9.00;43.90;;;;;;10377364;28;20230;-75
2022/04/01 06:45:15;;;;;;;3.90;3.60;;;9.00;43.10;;;;;;10371681;28;20258;-74
2022/04/01 06:50:20;;;;;;;4.00;3.70;;;9.00;43.10;;;;;;10384983;28;20261;-75
2022/04/01 06:55:24;;;;;;;4.30;4.00;;;9.00;43.30;;;;;;10398769;28;20237;-75
2022/04/01 07:00:27;;;;;;;4.30;4.00;;;9.00;43.10;;;;;;10394831;28;20233;-76
2022/04/01 07:05:35;;;;;;;4.00;3.70;;;8.90;43.00;;;;;;10394101;28;20248;-76
2022/04/01 07:10:39;;;;;;;4.83;3.77;;;8.90;43.30;;;;;;10385487;28;20234;-76
2022/04/01 07:15:42;;;;;;;4.00;3.70;;;8.90;43.20;;;;;;10383272;28;20588;-75
2022/04/01 07:20:48;;;;;;;3.60;3.40;;;8.90;43.20;;;;;;10381595;28;20253;-74
2022/04/01 07:25:51;;;;;;;3.70;3.50;;;8.90;43.50;;;;;;10388188;28;20241;-77
2022/04/01 07:30:56;;;;;;;3.87;3.67;;;8.90;43.40;;;;;;10391424;28;20296;-75
2022/04/01 07:36:20;;;;;;;3.47;3.27;;;8.90;43.40;;;;;;10392650;28;20275;-76
2022/04/01 07:41:23;;;;;;;3.80;3.50;;;8.90;43.90;;;;;;10403093;28;20234;-76
2022/04/01 07:46:26;;;;;;;3.60;3.40;;;8.90;43.60;;;;;;10393497;28;20599;-74
2022/04/01 07:51:31;;;;;;;3.63;3.43;;;8.90;43.60;;;;;;10391975;28;20230;-73
2022/04/01 07:56:36;;;;;;;3.53;3.33;;;8.90;43.60;;;;;;10385405;28;20365;-73
2022/04/01 08:01:39;;;;;;;3.73;3.43;;;8.90;43.60;;;;;;10396422;28;20748;-73
2022/04/01 08:06:44;;;;;;;3.83;3.53;;;8.90;43.60;;;;;;10393538;28;20233;-72
2022/04/01 08:11:47;;;;;;;4.00;3.70;;;8.90;43.90;;;;;;10394221;28;20237;-72
2022/04/01 08:16:50;;;;;;;3.20;3.00;;;8.90;43.40;;;;;;10387697;28;20229;-72
2022/04/01 08:21:57;;;;;;;4.00;3.70;;;8.90;43.40;;;;;;10391311;28;20227;-75
2022/04/01 08:27:01;;;;;;;3.73;3.53;;;8.90;43.70;;;;;;10393836;28;20234;-72
2022/04/01 08:32:07;;;;;;;3.73;3.43;;;8.90;43.40;;;;;;10392708;28;20226;-72
2022/04/01 08:37:12;;;;;;;3.50;3.30;;;8.90;43.50;;;;;;10397708;28;20242;-73
2022/04/01 08:42:15;;;;;;;3.17;2.97;;;8.80;43.60;;;;;;10402787;28;20225;-74
2022/04/01 08:47:24;;;;;;;3.67;3.47;;;8.80;43.50;;;;;;10405408;28;20234;-73
2022/04/01 08:52:29;;;;;;;3.70;3.50;;;8.80;43.60;;;;;;10394606;28;20230;-72
2022/04/01 08:57:37;;;;;;;4.07;3.83;;;8.70;43.90;;;;;;10375011;28;20234;-73
2022/04/01 09:02:40;;;;;;;4.07;3.80;;;8.70;44.20;;;;;;10406920;28;20237;-72
2022/04/01 09:07:46;;;;;;;4.53;4.23;;;8.60;43.80;;;;;;10409775;28;20252;-73
2022/04/01 09:12:49;;;;;;;4.10;3.80;;;8.60;44.30;;;;;;10395996;28;20242;-72
2022/04/01 09:17:53;;;;;;;3.70;3.50;;;8.60;44.20;;;;;;10393247;28;20237;-73
2022/04/01 09:22:59;;;;;;;2.90;2.70;;;8.60;44.10;;;;;;10396329;28;20642;-71
2022/04/01 09:28:02;;;;;;;3.03;2.83;;;8.60;44.40;;;;;;10371836;28;20722;-72
2022/04/01 09:33:06;;;;;;;3.17;2.60;;;8.60;43.90;;;;;;10399413;28;20253;-72
2022/04/01 09:38:10;;;;;;;4.53;2.47;;;8.60;44.00;;;;;;10397423;28;20336;-72
2022/04/01 09:43:24;;;;;;;3.17;2.97;;;8.60;44.20;;;;;;10384781;28;20733;-71
2022/04/01 09:48:27;;;;;;;3.13;2.93;;;8.60;44.70;;;;;;10409106;28;20601;-71
2022/04/01 09:53:35;;;;;;;2.80;2.60;;;8.60;43.90;;;;;;10386715;28;20238;-71
2022/04/01 09:58:38;;;;;;;2.80;2.60;;;8.70;44.20;;;;;;10398610;28;20722;-72
2022/04/01 10:03:41;;;;;;;2.90;2.70;;;8.70;43.90;;;;;;10389076;28;20217;-74
2022/04/01 10:08:46;;;;;;;2.80;2.60;;;8.70;43.70;;;;;;10390167;28;20296;-76
2022/04/01 10:13:51;;;;;;;3.30;3.10;;;8.60;44.00;;;;;;10400640;28;20230;-76
2022/04/01 10:18:57;;;;;;;3.63;3.33;;;8.60;44.00;;;;;;10383875;28;20240;-76
2022/04/01 10:24:09;;;;;;;3.50;3.30;;;8.60;43.90;;;;;;10392342;28;20234;-77
2022/04/01 10:29:21;;;;;;;3.30;3.10;;;8.60;44.40;;;;;;10387280;27;20579;-74
2022/04/01 10:34:25;;;;;;;3.33;3.13;;;8.60;44.10;;;;;;10375458;28;20231;-74
2022/04/01 10:39:29;;;;;;;4.17;3.87;;;8.70;44.10;;;;;;10373851;28;22166;-73
2022/04/01 10:44:47;;;;;;;4.63;3.73;;;8.70;44.10;;;;;;10372391;28;20226;-73
2022/04/01 10:55:18;;;;;;;4.37;4.00;;;8.70;44.00;;;;;;10370974;28;20218;-73
2022/04/01 11:00:23;;;;;;;4.57;4.27;;;8.80;44.10;;;;;;10372141;28;20601;-74
2022/04/01 11:05:30;;;;;;;4.23;3.93;;;8.80;44.50;;;;;;10370672;28;20234;-73
2022/04/01 11:10:36;;;;;;;4.93;4.60;;;8.80;44.40;;;;;;10373000;28;20239;-73
2022/04/01 11:16:13;;;;;;;4.00;3.73;;;8.90;44.40;;;;;;10376017;28;20226;-80
2022/04/01 11:21:30;;;;;;;4.00;3.70;;;8.90;45.50;;;;;;10366837;28;20348;-73
2022/04/01 11:26:43;;;;;;;3.87;3.57;;;8.90;45.50;;;;;;10374726;28;20250;-74
2022/04/01 11:31:46;;;;;;;3.70;3.40;;;9.00;45.50;;;;;;10375157;28;20226;-75
2022/04/01 11:37:00;;;;;;;3.50;3.20;;;9.00;44.40;;;;;;10367369;28;20542;-75
2022/04/01 11:42:07;;;;;;;5.87;5.47;;;9.00;45.20;;;;;;10348815;28;20226;-74
2022/04/01 11:47:10;;;;;;;4.07;3.77;;;9.00;44.60;;;;;;10344013;28;20238;-75
2022/04/01 11:52:14;;;;;;;3.13;2.93;;;9.10;44.50;;;;;;10347133;28;20313;-75
2022/04/01 11:57:17;;;;;;;2.97;2.77;;;9.10;44.80;;;;;;10343938;28;20230;-76
2022/04/01 12:02:21;;;;;;;3.33;3.13;;;9.10;44.60;;;;;;10345010;28;20238;-76
2022/04/01 12:12:54;;;;;;;2.77;2.57;;;9.10;44.70;;;;;;10351572;28;20810;-73
2022/04/01 12:17:57;;;;;;;2.47;2.33;;;9.20;45.40;;;;;;10351365;28;20235;-78
2022/04/01 12:23:02;;;;;;;2.57;2.37;;;9.20;45.20;;;;;;10352379;28;20222;-77
2022/04/01 12:28:08;;;;;;;2.17;2.03;;;9.30;45.90;;;;;;10341495;28;20245;-77
2022/04/01 12:33:16;;;;;;;2.50;2.30;;;9.30;45.20;;;;;;10344127;28;20219;-77
2022/04/01 12:38:20;;;;;;;2.33;2.23;;;9.40;45.00;;;;;;10338832;28;20223;-77
2022/04/01 12:43:35;;;;;;;2.50;2.40;;;9.40;44.80;;;;;;10342426;28;20261;-77
2022/04/01 12:48:47;;;;;;;2.30;2.20;;;9.40;45.40;;;;;;10346055;28;20238;-77
2022/04/01 12:53:57;;;;;;;2.17;2.07;;;9.40;45.40;;;;;;10345287;28;20226;-77
2022/04/01 12:59:04;;;;;;;2.30;2.20;;;9.40;45.20;;;;;;10343394;28;20601;-76
2022/04/01 13:04:09;;;;;;;2.57;2.43;;;9.40;44.70;;;;;;10340805;28;20219;-77
2022/04/01 13:09:14;;;;;;;2.43;2.33;;;9.40;44.60;;;;;;10345096;28;20233;-76
2022/04/01 13:14:22;;;;;;;2.40;2.30;;;9.30;44.60;;;;;;10340002;28;20233;-75
2022/04/01 13:19:28;;;;;;;2.20;2.10;;;9.40;44.90;;;;;;10347418;28;20234;-75
2022/04/01 13:24:37;;;;;;;2.10;2.00;;;9.30;44.50;;;;;;10337902;28;20309;-75
2022/04/01 13:29:41;;;;;;;3.00;2.20;;;9.30;44.80;;;;;;10344148;28;20238;-76
2022/04/01 13:34:44;;;;;;;2.40;2.30;;;9.30;44.50;;;;;;10339169;28;20263;-75
2022/04/01 13:39:49;;;;;;;2.40;2.30;;;9.30;44.50;;;;;;10342632;28;20238;-75
2022/04/01 13:44:53;;;;;;;2.20;2.10;;;9.30;44.70;;;;;;10341658;28;20280;-75
2022/04/01 13:49:56;;;;;;;2.50;2.30;;;9.30;44.40;;;;;;10344406;28;20253;-75
2022/04/01 13:55:01;;;;;;;2.80;2.60;;;9.30;44.30;;;;;;10338101;28;20426;-75
2022/04/01 14:00:06;;;;;;;2.40;2.30;;;9.30;44.60;;;;;;10338041;28;20248;-74
2022/04/01 14:05:10;;;;;;;2.40;2.30;;;9.30;44.30;;;;;;10344242;28;20231;-77
2022/04/01 14:10:14;;;;;;;2.17;2.07;;;9.30;44.30;;;;;;10342911;28;20717;-76
2022/04/01 14:15:21;;;;;;;2.30;2.20;;;9.30;44.30;;;;;;10337768;28;20249;-75
2022/04/01 14:20:25;;;;;;;2.60;2.50;;;9.40;44.30;;;;;;10338683;28;20237;-76
2022/04/01 14:25:29;;;;;;;2.93;2.73;;;9.40;44.30;;;;;;10340039;28;20600;-76
2022/04/01 14:30:32;;;;;;;3.43;3.13;;;9.40;44.20;;;;;;10339265;28;20246;-76
2022/04/01 14:35:36;;;;;;;3.80;3.60;;;9.40;44.00;;;;;;10340884;28;20757;-76
2022/04/01 14:40:40;;;;;;;3.93;3.63;;;9.40;44.00;;;;;;10339439;28;20748;-75
2022/04/01 14:45:45;;;;;;;3.83;3.63;;;9.30;43.90;;;;;;10334715;28;20226;-75
2022/04/01 14:50:48;;;;;;;4.30;4.00;;;9.30;43.70;;;;;;10339233;28;20718;-76
2022/04/01 14:55:52;;;;;;;4.50;4.20;;;9.30;43.80;;;;;;10340589;28;20230;-77
2022/04/01 15:00:56;;;;;;;4.03;3.83;;;9.20;43.90;;;;;;10341394;28;20521;-75
2022/04/01 15:05:59;;;;;;;3.93;3.67;;;9.20;43.80;;;;;;10340374;28;20379;-75
2022/04/01 15:11:04;;;;;;;4.73;4.43;;;9.10;43.80;;;;;;10339237;28;20249;-75
2022/04/01 15:16:08;;;;;;;4.67;4.37;;;9.10;43.90;;;;;;10349194;28;20221;-76
2022/04/01 15:21:11;;;;;;;5.00;4.63;;;9.00;43.80;;;;;;10349372;28;20257;-75
2022/04/01 15:26:17;;;;;;;4.97;4.67;;;9.10;43.90;;;;;;10352144;28;20246;-75
2022/04/01 15:31:21;;;;;;;5.53;5.13;;;9.10;43.80;;;;;;10343200;28;20584;-75
2022/04/01 15:36:28;;;;;;;6.17;5.77;;;9.10;43.80;;;;;;10347831;28;20296;-75
2022/04/01 15:41:32;;;;;;;6.03;5.63;;;9.00;43.90;;;;;;10343150;28;20227;-76
2022/04/01 15:46:38;;;;;;;6.70;6.20;;;9.00;43.80;;;;;;10346981;28;20243;-75
2022/04/01 15:51:42;;;;;;;5.97;5.50;;;9.00;43.70;;;;;;10345166;28;20246;-76
2022/04/01 15:56:46;;;;;;;6.50;6.00;;;8.90;43.50;;;;;;10344835;28;20734;-77
2022/04/01 16:01:51;;;;;;;6.20;5.80;;;8.90;43.50;;;;;;10345152;28;20239;-76
2022/04/01 16:06:55;;;;;;;7.23;6.67;;;8.90;43.40;;;;;;10347314;28;20864;-76
2022/04/01 16:12:01;;;;;;;7.50;6.90;;;8.90;43.40;;;;;;10341274;28;20242;-75
2022/04/01 16:17:05;;;;;;;7.30;6.80;;;8.80;43.20;;;;;;10344067;28;20221;-75
2022/04/01 16:22:08;;;;;;;8.27;7.67;;;8.80;43.10;;;;;;10346294;28;20226;-75
2022/04/01 16:27:13;;;;;;;7.47;6.97;;;8.80;43.20;;;;;;10343353;28;20230;-75
2022/04/01 16:32:17;;;;;;;8.43;7.80;;;8.70;43.20;;;;;;10340623;28;20580;-75
2022/04/01 16:37:20;;;;;;;8.47;7.87;;;8.60;43.10;;;;;;10342946;28;20231;-75
2022/04/01 16:42:25;;;;;;;9.03;8.33;;;8.60;43.00;;;;;;10340489;28;20231;-75
2022/04/01 16:47:28;;;;;;;9.33;8.37;;;8.50;43.20;;;;;;10340482;28;20231;-75
2022/04/01 16:52:31;;;;;;;9.90;9.10;;;8.50;43.10;;;;;;10342555;28;20777;-74
2022/04/01 16:57:36;;;;;;;10.40;9.60;;;8.40;43.90;;;;;;10341486;28;20261;-75
2022/04/01 17:02:42;;;;;;;10.07;9.30;;;8.30;43.40;;;;;;10345555;28;20238;-75
2022/04/01 17:13:07;;;;;;;10.30;9.50;;;8.20;43.10;;;;;;10342659;28;20226;-75
2022/04/01 17:18:12;;;;;;;11.03;10.13;;;8.10;43.00;;;;;;10346827;28;20334;-75
2022/04/01 17:23:18;;;;;;;10.63;9.83;;;8.10;42.90;;;;;;10343384;28;20228;-75
2022/04/01 17:28:23;;;;;;;11.33;10.23;;;8.00;42.90;;;;;;10343942;28;21252;-75
2022/04/01 17:33:27;;;;;;;11.53;10.43;;;7.90;43.00;;;;;;10339551;28;20226;-75
2022/04/01 17:38:30;;;;;;;12.20;11.20;;;7.80;43.00;;;;;;10338456;28;20230;-75
2022/04/01 17:43:36;;;;;;;11.77;10.77;;;7.70;42.90;;;;;;10342236;28;20240;-75
2022/04/01 17:48:39;;;;;;;12.53;11.43;;;7.70;43.10;;;;;;10342036;28;20235;-76
2022/04/01 17:53:42;;;;;;;12.17;11.17;;;7.60;43.00;;;;;;10335651;28;20254;-75
2022/04/01 17:58:51;;;;;;;12.17;11.17;;;7.50;43.10;;;;;;10344050;28;20239;-75
2022/04/01 18:03:57;;;;;;;11.63;10.63;;;7.50;43.30;;;;;;10342013;28;20231;-75
2022/04/01 18:09:03;;;;;;;12.10;11.10;;;7.50;43.30;;;;;;10341115;28;20238;-75
2022/04/01 18:14:09;;;;;;;12.17;11.17;;;7.40;43.30;;;;;;10339068;28;20686;-78
2022/04/01 18:19:13;;;;;;;12.67;11.60;;;7.40;43.50;;;;;;10339559;28;20260;-77
2022/04/01 18:24:16;;;;;;;12.53;11.53;;;7.30;43.30;;;;;;10342241;28;20574;-77
2022/04/01 18:29:31;;;;;;;12.77;11.77;;;7.30;43.30;;;;;;10339709;28;20241;-78
2022/04/01 18:34:35;;;;;;;13.33;12.23;;;7.30;43.70;;;;;;10337124;28;20876;-78
2022/04/01 18:39:40;;;;;;;12.77;11.70;;;7.20;43.30;;;;;;10335202;28;20597;-78
2022/04/01 18:44:45;;;;;;;12.50;11.50;;;7.20;43.50;;;;;;10338033;28;20226;-78
2022/04/01 18:49:49;;;;;;;12.70;11.60;;;7.20;43.30;;;;;;10344490;28;20592;-78
2022/04/01 18:54:53;;;;;;;13.23;12.13;;;7.20;43.20;;;;;;10344100;28;20238;-78
2022/04/01 18:59:57;;;;;;;13.40;12.30;;;7.20;43.20;;;;;;10350684;28;20245;-78
2022/04/01 19:05:06;;;;;;;13.40;12.30;;;7.20;43.20;;;;;;10345008;28;20417;-78
2022/04/01 19:10:14;;;;;;;13.23;12.13;;;7.10;43.20;;;;;;10348634;28;20314;-78
2022/04/01 19:15:23;;;;;;;12.57;11.57;;;7.10;43.10;;;;;;10343714;28;20237;-78
2022/04/01 19:20:30;;;;;;;12.97;11.87;;;7.00;43.10;;;;;;10351650;28;20249;-78
2022/04/01 19:25:34;;;;;;;13.20;12.20;;;7.00;43.30;;;;;;10346993;28;20235;-78
2022/04/01 19:30:38;;;;;;;12.77;11.77;;;6.90;42.80;;;;;;10345085;28;20606;-78
2022/04/01 19:35:42;;;;;;;12.47;11.47;;;6.90;43.00;;;;;;10343013;28;20241;-78
2022/04/01 19:40:46;;;;;;;12.40;11.40;;;6.90;43.00;;;;;;10347065;28;20247;-78
2022/04/01 19:45:50;;;;;;;12.93;11.90;;;6.80;42.90;;;;;;10347457;28;20226;-78
2022/04/01 19:50:53;;;;;;;12.53;11.53;;;6.90;43.10;;;;;;10344585;28;20273;-78
2022/04/01 19:55:57;;;;;;;12.83;11.73;;;6.80;42.90;;;;;;10345324;28;20218;-77
2022/04/01 20:01:01;;;;;;;13.00;11.90;;;6.80;43.00;;;;;;10348857;28;20238;-77
2022/04/01 20:06:05;;;;;;;12.63;11.63;;;6.70;43.00;;;;;;10342887;28;20242;-77
2022/04/01 20:11:08;;;;;;;12.87;11.77;;;6.70;42.90;;;;;;10345252;28;20249;-77
2022/04/01 20:16:13;;;;;;;13.53;12.43;;;6.70;43.00;;;;;;10343721;28;20237;-76
2022/04/01 20:21:17;;;;;;;12.63;11.53;;;6.70;43.00;;;;;;10348307;28;20333;-77
2022/04/01 20:26:20;;;;;;;13.13;12.10;;;6.60;42.80;;;;;;10347287;28;20220;-77
2022/04/01 20:31:25;;;;;;;14.03;12.83;;;6.60;42.80;;;;;;10345574;28;20236;-77
2022/04/01 20:36:28;;;;;;;13.50;12.40;;;6.60;43.00;;;;;;10342960;28;20458;-77
2022/04/01 20:41:33;;;;;;;13.53;12.43;;;6.50;42.70;;;;;;10345629;28;20230;-77
2022/04/01 20:46:37;;;;;;;14.47;13.23;;;6.50;43.00;;;;;;10344157;28;20230;-78
2022/04/01 20:51:41;;;;;;;14.27;13.07;;;6.50;43.10;;;;;;10343996;28;20258;-77
2022/04/01 20:56:44;;;;;;;15.03;13.83;;;6.40;42.90;;;;;;10340771;28;20222;-78
2022/04/01 21:01:49;;;;;;;13.77;12.67;;;6.40;43.00;;;;;;10344209;28;20733;-78
2022/04/01 21:06:52;;;;;;;14.43;13.23;;;6.40;43.00;;;;;;10346013;28;20301;-77
2022/04/01 21:11:57;;;;;;;15.33;14.03;;;6.30;42.90;;;;;;10345187;28;20239;-77
2022/04/01 21:17:02;;;;;;;14.07;12.97;;;6.30;42.90;;;;;;10342751;28;20237;-78
2022/04/01 21:22:05;;;;;;;13.90;12.77;;;6.30;43.10;;;;;;10345296;28;20234;-77
2022/04/01 21:27:23;;;;;;;14.73;13.53;;;6.30;43.00;;;;;;10343964;28;20691;-77
2022/04/01 21:32:29;;;;;;;14.87;13.67;;;6.20;43.00;;;;;;10344249;28;20234;-77
2022/04/01 21:37:33;;;;;;;15.57;14.27;;;6.20;43.20;;;;;;10344628;28;20226;-78
2022/04/01 21:42:36;;;;;;;14.70;13.50;;;6.20;43.10;;;;;;10341437;28;20231;-78
2022/04/01 21:47:40;;;;;;;14.70;13.40;;;6.10;43.10;;;;;;10335186;28;20231;-77
2022/04/01 21:52:43;;;;;;;14.87;13.67;;;6.10;43.20;;;;;;10341252;28;20617;-78
2022/04/01 21:57:47;;;;;;;15.07;13.87;;;6.10;43.20;;;;;;10343086;28;20598;-78
2022/04/01 22:02:51;;;;;;;15.17;13.97;;;6.10;43.30;;;;;;10343290;28;20683;-78
2022/04/01 22:07:55;;;;;;;15.50;14.10;;;6.00;43.30;;;;;;10341336;28;20708;-78
2022/04/01 22:12:59;;;;;;;15.43;14.13;;;6.00;43.30;;;;;;10338642;28;20224;-78
2022/04/01 22:18:04;;;;;;;15.47;14.17;;;6.00;43.30;;;;;;10341718;28;20229;-77
2022/04/01 22:23:08;;;;;;;15.97;14.57;;;6.00;43.50;;;;;;10340560;28;20233;-77
2022/04/01 22:28:12;;;;;;;14.97;13.73;;;6.00;43.60;;;;;;10344396;28;20214;-78
2022/04/01 22:33:17;;;;;;;15.40;14.10;;;6.00;43.40;;;;;;10337934;28;20237;-77
2022/04/01 22:38:20;;;;;;;14.83;13.63;;;5.90;43.50;;;;;;10342522;28;20457;-77
2022/04/01 22:43:23;;;;;;;15.20;13.90;;;5.90;43.50;;;;;;10345146;28;20222;-77
2022/04/01 22:48:28;;;;;;;14.70;13.40;;;5.90;43.50;;;;;;10342026;28;20231;-78
2022/04/01 22:53:31;;;;;;;14.47;13.13;;;5.90;43.50;;;;;;10339719;28;20233;-78
2022/04/01 22:58:34;;;;;;;13.93;12.67;;;5.90;43.40;;;;;;10337866;28;20580;-78
2022/04/01 23:03:39;;;;;;;13.73;12.53;;;5.90;43.40;;;;;;10335937;28;20231;-77
2022/04/01 23:08:42;;;;;;;12.90;11.90;;;5.90;43.50;;;;;;10340046;28;20233;-77
2022/04/01 23:13:45;;;;;;;13.37;12.17;;;5.90;43.50;;;;;;10338377;28;20230;-78
2022/04/01 23:18:50;;;;;;;12.33;11.33;;;5.80;43.40;;;;;;10345060;28;20226;-77
2022/04/01 23:23:53;;;;;;;11.70;10.67;;;5.80;43.40;;;;;;10338865;28;20227;-78
2022/04/01 23:28:56;;;;;;;13.13;12.03;;;5.80;43.40;;;;;;10340300;28;20255;-78
2022/04/01 23:34:01;;;;;;;12.03;11.00;;;5.80;43.40;;;;;;10343008;28;20227;-78
2022/04/01 23:39:04;;;;;;;11.87;10.97;;;5.70;43.30;;;;;;10348423;28;20225;-77
2022/04/01 23:44:07;;;;;;;11.47;10.47;;;5.70;43.30;;;;;;10349092;28;20230;-77
2022/04/01 23:49:12;;;;;;;11.77;10.77;;;5.70;44.00;;;;;;10344762;28;20700;-78
2022/04/01 23:54:16;;;;;;;11.30;10.33;;;5.70;43.40;;;;;;10344265;28;20233;-77
2022/04/01 23:59:19;;;;;;;12.20;11.20;;;5.70;43.30;;;;;;10341834;28;20265;-77
